Time;durP1;ratioP1;P1;durP2;ratioP2;P2;SDS_P1;SDS_P2;PMS_P1;PMS_P2;Temp;Humidity;BMP_temperature;BMP_pressure;BME280_temperature;BME280_humidity;BME280_pressure;Samples;Min_cycle;Max_cycle;Signal;HPM_P1;HPM_P2
2023/12/17 00:00:53;;;;;;;0.40;0.40;;;10.20;99.90;;;;;;6213824;23;20040;-71
2023/12/17 00:03:18;;;;;;;0.30;0.30;;;10.20;99.90;;;;;;6186991;23;20008;-70
2023/12/17 00:05:44;;;;;;;0.32;0.17;;;10.20;99.90;;;;;;6214061;23;20016;-71
2023/12/17 00:08:09;;;;;;;1.27;0.40;;;10.10;99.90;;;;;;6186276;23;20059;-71
2023/12/17 00:10:35;;;;;;;0.85;0.45;;;10.20;99.90;;;;;;6186404;23;20051;-71
2023/12/17 00:13:04;;;;;;;1.63;0.60;;;10.20;99.90;;;;;;6163100;23;20503;-69
2023/12/17 00:15:33;;;;;;;0.43;0.35;;;10.10;99.90;;;;;;6185372;23;20014;-70
2023/12/17 00:17:59;;;;;;;1.17;0.82;;;10.20;99.90;;;;;;6184332;23;20083;-71
2023/12/17 00:20:25;;;;;;;5.85;0.38;;;10.20;99.90;;;;;;6185248;23;20379;-70
2023/12/17 00:22:50;;;;;;;4.70;1.75;;;10.10;99.90;;;;;;6183918;23;20016;-70
2023/12/17 00:25:16;;;;;;;3.92;0.63;;;10.10;99.90;;;;;;6184605;23;20020;-73
2023/12/17 00:27:41;;;;;;;1.30;1.13;;;10.10;99.90;;;;;;6211200;23;20017;-70
2023/12/17 00:30:07;;;;;;;0.63;0.63;;;10.10;99.90;;;;;;6212896;23;20012;-71
2023/12/17 00:32:33;;;;;;;0.38;0.32;;;10.10;99.90;;;;;;6211304;23;20055;-71
2023/12/17 00:34:58;;;;;;;0.32;0.30;;;10.10;99.90;;;;;;6213138;23;20020;-72
2023/12/17 00:37:26;;;;;;;0.95;0.35;;;10.20;99.90;;;;;;6185929;23;20028;-70
2023/12/17 00:39:51;;;;;;;0.80;0.43;;;10.10;99.90;;;;;;6186195;23;20557;-72
2023/12/17 00:42:17;;;;;;;1.27;0.88;;;10.10;99.90;;;;;;6210693;23;20095;-70
2023/12/17 00:44:42;;;;;;;0.68;0.60;;;10.10;99.90;;;;;;6184402;23;20048;-73
2023/12/17 00:47:08;;;;;;;4.65;0.38;;;10.10;99.90;;;;;;6184706;23;20020;-68
2023/12/17 00:49:33;;;;;;;0.93;0.93;;;10.10;99.90;;;;;;6184762;23;20013;-68
2023/12/17 00:51:59;;;;;;;0.50;0.50;;;10.00;99.90;;;;;;6184947;23;20071;-72
2023/12/17 00:54:25;;;;;;;0.68;0.68;;;10.10;99.90;;;;;;6211497;23;20021;-70
2023/12/17 00:56:50;;;;;;;1.10;0.50;;;10.10;99.90;;;;;;6185635;23;20019;-71
2023/12/17 00:59:16;;;;;;;2.55;0.40;;;10.10;99.90;;;;;;6182074;23;20491;-70
2023/12/17 01:01:41;;;;;;;1.05;0.63;;;10.10;99.90;;;;;;6210857;23;20013;-71
2023/12/17 01:04:07;;;;;;;0.80;0.80;;;10.10;99.90;;;;;;6210391;23;20071;-72
2023/12/17 01:06:32;;;;;;;0.20;0.20;;;10.10;99.90;;;;;;6185593;23;20012;-71
2023/12/17 01:08:59;;;;;;;0.30;0.30;;;10.10;99.90;;;;;;6211299;23;20013;-69
2023/12/17 01:11:24;;;;;;;0.20;0.20;;;10.00;99.90;;;;;;6185195;23;20043;-70
2023/12/17 01:13:50;;;;;;;0.30;0.30;;;10.10;99.90;;;;;;6210786;23;20371;-71
2023/12/17 01:16:15;;;;;;;1.85;0.65;;;10.00;99.90;;;;;;6184718;23;20016;-71
2023/12/17 01:18:41;;;;;;;4.38;0.73;;;10.10;99.90;;;;;;6185111;23;20012;-70
2023/12/17 01:21:06;;;;;;;0.20;0.20;;;10.10;99.90;;;;;;6186144;23;20436;-71
2023/12/17 01:23:32;;;;;;;0.75;0.40;;;10.10;99.90;;;;;;6211821;23;20425;-72
2023/12/17 01:25:58;;;;;;;1.55;0.40;;;10.10;99.90;;;;;;6211513;23;20021;-72
2023/12/17 01:28:23;;;;;;;0.40;0.40;;;10.10;99.90;;;;;;6213270;23;20088;-70
2023/12/17 01:30:49;;;;;;;0.88;0.88;;;10.00;99.90;;;;;;6188006;23;20021;-71
2023/12/17 01:33:14;;;;;;;0.57;0.57;;;10.10;99.90;;;;;;6187836;23;20017;-70
2023/12/17 01:35:40;;;;;;;1.85;1.10;;;10.10;99.90;;;;;;6162312;23;20023;-69
2023/12/17 01:38:05;;;;;;;0.30;0.30;;;10.10;99.90;;;;;;6186416;23;20016;-70
2023/12/17 01:40:31;;;;;;;0.52;0.52;;;10.10;99.90;;;;;;6188224;23;20013;-69
2023/12/17 01:42:57;;;;;;;0.60;0.60;;;10.10;99.90;;;;;;6187203;23;20347;-69
2023/12/17 01:45:22;;;;;;;0.63;0.57;;;10.10;99.90;;;;;;6185487;23;20336;-69
2023/12/17 01:47:49;;;;;;;0.88;0.45;;;10.10;99.90;;;;;;6213663;23;20794;-69
2023/12/17 01:50:15;;;;;;;1.65;0.40;;;10.10;99.90;;;;;;6213003;23;20440;-69
2023/12/17 01:52:41;;;;;;;0.40;0.40;;;10.10;99.90;;;;;;6211260;23;20012;-70
2023/12/17 01:55:08;;;;;;;0.60;0.60;;;10.10;99.90;;;;;;6184356;23;20013;-73
2023/12/17 01:57:33;;;;;;;0.20;0.20;;;10.10;99.90;;;;;;6161259;23;20020;-71
2023/12/17 02:00:00;;;;;;;1.65;1.15;;;10.10;99.90;;;;;;6163268;23;20044;-71
2023/12/17 02:02:25;;;;;;;4.47;0.95;;;10.10;99.90;;;;;;6186285;23;20012;-72
2023/12/17 02:04:51;;;;;;;27.95;1.85;;;10.10;99.90;;;;;;6186166;23;20095;-69
2023/12/17 02:07:16;;;;;;;2.80;0.68;;;10.00;99.90;;;;;;6186858;23;20024;-70
2023/12/17 02:09:42;;;;;;;0.55;0.55;;;10.10;99.90;;;;;;6186654;23;20103;-69
2023/12/17 02:12:14;;;;;;;6.72;1.17;;;10.00;99.90;;;;;;6186894;23;20051;-73
2023/12/17 02:14:40;;;;;;;0.60;0.60;;;10.00;99.90;;;;;;6185974;23;20012;-69
2023/12/17 02:17:06;;;;;;;0.50;0.50;;;10.10;99.90;;;;;;6186966;23;20140;-69
2023/12/17 02:19:31;;;;;;;0.30;0.30;;;10.00;99.90;;;;;;6186327;23;20020;-70
2023/12/17 02:21:57;;;;;;;1.65;0.35;;;10.00;99.90;;;;;;6185790;23;20008;-70
2023/12/17 02:24:23;;;;;;;0.22;0.22;;;10.00;99.90;;;;;;6212588;23;20012;-69
2023/12/17 02:26:48;;;;;;;1.45;1.05;;;10.00;99.90;;;;;;6186737;23;20103;-70
2023/12/17 02:29:14;;;;;;;0.30;0.30;;;9.90;99.90;;;;;;6186073;23;20027;-70
2023/12/17 02:31:39;;;;;;;0.35;0.30;;;9.90;99.90;;;;;;6214024;23;20008;-71
2023/12/17 02:34:05;;;;;;;0.38;0.35;;;9.90;99.90;;;;;;6185824;23;20012;-71
2023/12/17 02:36:30;;;;;;;1.17;0.43;;;9.80;99.90;;;;;;6213910;23;20092;-69
2023/12/17 02:38:56;;;;;;;0.35;0.35;;;9.80;99.90;;;;;;6185436;23;20016;-71
2023/12/17 02:41:22;;;;;;;5.82;3.00;;;9.80;99.90;;;;;;6186780;23;20039;-72
2023/12/17 02:43:47;;;;;;;6.05;0.95;;;9.80;99.90;;;;;;6213051;23;20066;-69
2023/12/17 02:46:13;;;;;;;1.02;0.57;;;9.90;99.90;;;;;;6187044;23;20015;-71
2023/12/17 02:48:39;;;;;;;1.13;0.73;;;9.90;99.90;;;;;;6212416;23;20440;-71
2023/12/17 02:51:05;;;;;;;3.53;0.85;;;9.90;99.90;;;;;;6211722;23;20013;-71
2023/12/17 02:53:30;;;;;;;0.60;0.60;;;9.90;99.90;;;;;;6185065;23;20009;-71
2023/12/17 02:55:56;;;;;;;1.70;1.60;;;9.90;99.90;;;;;;6212831;23;20469;-71
2023/12/17 02:58:21;;;;;;;2.10;0.98;;;9.90;99.90;;;;;;6185709;23;20044;-73
2023/12/17 03:00:47;;;;;;;0.10;0.10;;;9.90;99.90;;;;;;6185782;23;20348;-71
2023/12/17 03:03:13;;;;;;;0.73;0.73;;;9.90;99.90;;;;;;6213923;23;20428;-71
2023/12/17 03:05:38;;;;;;;1.15;0.30;;;9.90;99.90;;;;;;6211623;23;20020;-70
2023/12/17 03:08:04;;;;;;;3.63;2.47;;;9.90;99.90;;;;;;6186402;23;20012;-72
2023/12/17 03:10:29;;;;;;;0.70;0.70;;;9.90;99.90;;;;;;6186511;23;20017;-71
2023/12/17 03:12:55;;;;;;;1.40;0.82;;;9.90;99.90;;;;;;6187756;23;20017;-71
2023/12/17 03:15:21;;;;;;;0.55;0.40;;;9.80;99.90;;;;;;6186374;23;20012;-72
2023/12/17 03:17:47;;;;;;;0.77;0.43;;;9.80;99.90;;;;;;6185649;23;20015;-71
2023/12/17 03:20:12;;;;;;;1.08;1.05;;;9.80;99.90;;;;;;6213215;23;20428;-71
2023/12/17 03:22:38;;;;;;;0.43;0.43;;;9.80;99.90;;;;;;6186786;23;20019;-71
2023/12/17 03:25:13;;;;;;;0.35;0.35;;;9.80;99.90;;;;;;6213090;23;20009;-72
2023/12/17 03:27:38;;;;;;;0.50;0.50;;;9.80;99.90;;;;;;6213967;23;20091;-71
2023/12/17 03:30:06;;;;;;;0.80;0.70;;;9.70;99.90;;;;;;6186688;23;20106;-72
2023/12/17 03:32:31;;;;;;;0.55;0.55;;;9.70;99.90;;;;;;6186334;23;20012;-71
2023/12/17 03:34:57;;;;;;;0.47;0.47;;;9.70;99.90;;;;;;6186116;23;20074;-70
2023/12/17 03:37:22;;;;;;;3.25;0.98;;;9.80;99.90;;;;;;6186158;23;20012;-71
2023/12/17 03:39:50;;;;;;;0.20;0.20;;;9.80;99.90;;;;;;6212066;23;20383;-68
2023/12/17 03:42:15;;;;;;;0.93;0.73;;;9.80;99.90;;;;;;6185686;23;20500;-69
2023/12/17 03:44:41;;;;;;;0.30;0.30;;;9.80;99.90;;;;;;6211231;23;20047;-70
2023/12/17 03:47:06;;;;;;;1.08;0.93;;;9.80;99.90;;;;;;6186297;23;20012;-69
2023/12/17 03:49:32;;;;;;;0.90;0.70;;;9.80;99.90;;;;;;6184345;23;20027;-69
2023/12/17 03:51:57;;;;;;;1.50;0.80;;;9.90;99.90;;;;;;6186335;23;20012;-71
2023/12/17 03:54:23;;;;;;;0.30;0.30;;;9.90;99.90;;;;;;6210580;23;20024;-69
2023/12/17 03:56:48;;;;;;;2.80;0.57;;;9.90;99.90;;;;;;6212892;23;20028;-69
2023/12/17 03:59:15;;;;;;;1.60;0.82;;;9.90;99.90;;;;;;6183807;23;20008;-70
2023/12/17 04:01:47;;;;;;;0.85;0.65;;;9.90;99.90;;;;;;6212173;23;20019;-71
2023/12/17 04:04:13;;;;;;;0.65;0.65;;;9.90;99.90;;;;;;6184818;23;20008;-70
2023/12/17 04:06:42;;;;;;;0.82;0.70;;;9.90;99.90;;;;;;6185313;23;20095;-70
2023/12/17 04:09:09;;;;;;;0.88;0.65;;;9.90;99.90;;;;;;6212164;23;20036;-70
2023/12/17 04:11:34;;;;;;;0.22;0.22;;;9.90;99.90;;;;;;6184815;23;20008;-68
2023/12/17 04:14:01;;;;;;;1.63;0.52;;;9.90;99.90;;;;;;6211549;23;20009;-72
2023/12/17 04:16:26;;;;;;;0.68;0.68;;;10.00;99.90;;;;;;6184859;23;20021;-70
2023/12/17 04:18:52;;;;;;;11.30;3.40;;;10.00;99.90;;;;;;6185336;23;20018;-69
2023/12/17 04:21:17;;;;;;;1.88;0.85;;;10.00;99.90;;;;;;6186074;23;20395;-69
2023/12/17 04:23:44;;;;;;;1.40;1.15;;;10.00;99.90;;;;;;6161271;23;20482;-71
2023/12/17 04:26:13;;;;;;;1.08;0.43;;;10.00;99.90;;;;;;6184451;23;20012;-69
2023/12/17 04:28:39;;;;;;;0.50;0.35;;;10.00;99.90;;;;;;6212065;23;20088;-70
2023/12/17 04:31:04;;;;;;;4.13;0.75;;;10.00;99.90;;;;;;6184135;23;20111;-70
2023/12/17 04:33:31;;;;;;;1.63;0.95;;;10.00;99.90;;;;;;6211784;23;20020;-71
2023/12/17 04:35:57;;;;;;;0.32;0.32;;;9.90;99.90;;;;;;6211148;23;20406;-71
2023/12/17 04:38:23;;;;;;;1.55;0.88;;;9.90;99.90;;;;;;6186471;23;20507;-71
2023/12/17 04:40:49;;;;;;;0.95;0.70;;;9.90;99.90;;;;;;6212727;23;20052;-69
2023/12/17 04:43:15;;;;;;;0.75;0.35;;;9.90;99.90;;;;;;6185078;23;20013;-70
2023/12/17 04:45:41;;;;;;;0.80;0.55;;;9.90;99.90;;;;;;6184503;23;20009;-68
2023/12/17 04:48:06;;;;;;;0.93;0.93;;;9.90;99.90;;;;;;6184992;23;20360;-68
2023/12/17 04:50:32;;;;;;;1.13;1.02;;;9.90;99.90;;;;;;6184935;23;20019;-69
2023/12/17 04:52:58;;;;;;;1.77;1.65;;;9.90;99.90;;;;;;6184474;23;20008;-69
2023/12/17 04:55:23;;;;;;;0.68;0.50;;;9.90;99.90;;;;;;6184319;23;20463;-69
2023/12/17 04:57:49;;;;;;;0.35;0.35;;;9.90;99.90;;;;;;6209864;23;20016;-70
2023/12/17 05:00:15;;;;;;;0.47;0.47;;;9.90;99.90;;;;;;6185298;23;20009;-70
2023/12/17 05:02:41;;;;;;;0.77;0.60;;;9.90;99.90;;;;;;6185584;23;20017;-70
2023/12/17 05:05:07;;;;;;;0.98;0.52;;;9.90;99.90;;;;;;6186690;23;20012;-68
2023/12/17 05:07:33;;;;;;;2.17;0.32;;;9.90;99.90;;;;;;6186342;23;20013;-69
2023/12/17 05:09:59;;;;;;;0.28;0.25;;;9.80;99.90;;;;;;6187229;23;20017;-70
2023/12/17 05:12:24;;;;;;;0.75;0.73;;;9.80;99.90;;;;;;6185538;23;20065;-70
2023/12/17 05:14:50;;;;;;;4.85;1.15;;;9.80;99.90;;;;;;6212905;23;20028;-68
2023/12/17 05:17:15;;;;;;;0.30;0.30;;;9.80;99.90;;;;;;6186841;23;20020;-69
2023/12/17 05:19:41;;;;;;;2.40;0.90;;;9.80;99.90;;;;;;6214698;23;20023;-68
2023/12/17 05:22:06;;;;;;;0.57;0.43;;;9.80;99.90;;;;;;6186769;23;20013;-70
2023/12/17 05:24:32;;;;;;;1.63;0.80;;;9.80;99.90;;;;;;6187184;23;20090;-71
2023/12/17 05:26:58;;;;;;;2.47;0.90;;;9.80;99.90;;;;;;6162207;23;20020;-68
2023/12/17 05:29:23;;;;;;;0.47;0.35;;;9.80;99.90;;;;;;6186372;23;20023;-73
2023/12/17 05:31:49;;;;;;;0.50;0.50;;;9.70;99.90;;;;;;6186835;23;20021;-71
2023/12/17 05:34:16;;;;;;;0.93;0.40;;;9.80;99.90;;;;;;6212128;23;20027;-68
2023/12/17 05:36:42;;;;;;;0.20;0.20;;;9.80;99.90;;;;;;6186369;23;20048;-70
2023/12/17 05:39:07;;;;;;;2.13;1.10;;;9.70;99.90;;;;;;6187041;23;20015;-69
2023/12/17 05:41:33;;;;;;;0.65;0.50;;;9.70;99.90;;;;;;6213297;23;20417;-68
2023/12/17 05:43:59;;;;;;;0.20;0.20;;;9.70;99.90;;;;;;6185704;23;20016;-68
2023/12/17 05:46:25;;;;;;;0.35;0.35;;;9.70;99.90;;;;;;6212488;23;20017;-70
2023/12/17 05:48:51;;;;;;;1.90;1.50;;;9.70;99.90;;;;;;6213562;23;20023;-70
2023/12/17 05:51:16;;;;;;;0.40;0.40;;;9.70;99.90;;;;;;6186426;23;20376;-69
2023/12/17 05:53:42;;;;;;;1.15;1.15;;;9.70;99.90;;;;;;6212321;23;20479;-70
2023/12/17 05:56:08;;;;;;;0.32;0.32;;;9.70;99.90;;;;;;6185623;23;20322;-70
2023/12/17 05:58:33;;;;;;;2.85;1.13;;;9.60;99.90;;;;;;6214402;23;20008;-71
2023/12/17 06:00:59;;;;;;;0.75;0.75;;;9.60;99.90;;;;;;6186750;23;20024;-72
2023/12/17 06:03:24;;;;;;;0.10;0.10;;;9.60;99.90;;;;;;6185756;23;20039;-71
2023/12/17 06:05:50;;;;;;;1.30;0.52;;;9.60;99.90;;;;;;6186016;23;20066;-71
2023/12/17 06:08:16;;;;;;;0.45;0.20;;;9.60;99.90;;;;;;6185886;23;20462;-70
2023/12/17 06:10:41;;;;;;;4.43;0.60;;;9.50;99.90;;;;;;6213631;23;20012;-70
2023/12/17 06:13:07;;;;;;;0.63;0.35;;;9.50;99.90;;;;;;6212664;23;20016;-70
2023/12/17 06:15:32;;;;;;;3.03;0.85;;;9.50;99.90;;;;;;6185950;23;20403;-68
2023/12/17 06:17:58;;;;;;;1.98;0.55;;;9.50;99.90;;;;;;6212945;23;20376;-71
2023/12/17 06:20:25;;;;;;;5.30;0.52;;;9.50;99.90;;;;;;6186331;23;20009;-71
2023/12/17 06:22:52;;;;;;;0.60;0.45;;;9.50;99.90;;;;;;6161004;23;20017;-68
2023/12/17 06:25:17;;;;;;;0.28;0.28;;;9.40;99.90;;;;;;6185836;23;20106;-70
2023/12/17 06:27:43;;;;;;;0.57;0.52;;;9.50;99.90;;;;;;6212799;23;20020;-69
2023/12/17 06:30:09;;;;;;;0.75;0.40;;;9.40;99.90;;;;;;6187850;23;20091;-68
2023/12/17 06:32:34;;;;;;;0.35;0.35;;;9.40;99.90;;;;;;6186112;23;20012;-68
2023/12/17 06:35:00;;;;;;;2.28;0.60;;;9.50;99.90;;;;;;6161323;23;20020;-72
2023/12/17 06:37:25;;;;;;;1.70;0.57;;;9.50;99.90;;;;;;6186554;23;20107;-69
2023/12/17 06:39:51;;;;;;;3.70;1.05;;;9.50;99.90;;;;;;6214205;23;20040;-69
2023/12/17 06:42:16;;;;;;;1.23;0.80;;;9.50;99.90;;;;;;6186249;23;20064;-71
2023/12/17 06:44:42;;;;;;;1.02;0.30;;;9.40;99.90;;;;;;6183591;23;20559;-70
2023/12/17 06:47:08;;;;;;;0.60;0.60;;;9.50;99.90;;;;;;6185745;23;20058;-68
2023/12/17 06:49:36;;;;;;;1.48;1.00;;;9.40;99.90;;;;;;6186093;23;20015;-71
2023/12/17 06:52:02;;;;;;;1.95;1.08;;;9.50;99.90;;;;;;6211191;23;20017;-71
2023/12/17 06:54:28;;;;;;;0.30;0.30;;;9.50;99.90;;;;;;6184959;23;20062;-69
2023/12/17 06:56:54;;;;;;;1.80;0.98;;;9.40;99.90;;;;;;6184726;23;20017;-67
2023/12/17 06:59:20;;;;;;;0.50;0.50;;;9.40;99.90;;;;;;6212570;23;20428;-71
2023/12/17 07:01:46;;;;;;;1.25;1.08;;;9.40;99.90;;;;;;6185023;23;20009;-68
2023/12/17 07:04:11;;;;;;;1.80;1.30;;;9.40;99.90;;;;;;6185049;23;20050;-69
2023/12/17 07:06:37;;;;;;;2.85;1.10;;;9.40;99.90;;;;;;6184803;23;20024;-70
2023/12/17 07:09:02;;;;;;;0.20;0.20;;;9.40;99.90;;;;;;6185840;23;20036;-68
2023/12/17 07:11:28;;;;;;;2.35;0.60;;;9.40;99.90;;;;;;6185530;23;20018;-70
2023/12/17 07:13:54;;;;;;;1.67;0.93;;;9.40;99.90;;;;;;6211882;23;20012;-70
2023/12/17 07:16:23;;;;;;;0.77;0.77;;;9.40;99.90;;;;;;6185657;23;20016;-69
2023/12/17 07:18:49;;;;;;;0.47;0.47;;;9.40;99.90;;;;;;6185169;23;20515;-72
2023/12/17 07:21:15;;;;;;;1.05;0.70;;;9.40;99.90;;;;;;6185964;23;20012;-70
2023/12/17 07:23:41;;;;;;;1.27;0.65;;;9.40;99.90;;;;;;6185390;23;20019;-69
2023/12/17 07:26:07;;;;;;;0.40;0.40;;;9.40;99.90;;;;;;6184357;23;20024;-68
2023/12/17 07:28:32;;;;;;;0.70;0.45;;;9.30;99.90;;;;;;6158081;23;20019;-70
2023/12/17 07:30:58;;;;;;;1.35;1.25;;;9.30;99.90;;;;;;6212044;23;20016;-67
2023/12/17 07:33:23;;;;;;;0.47;0.47;;;9.30;99.90;;;;;;6184138;23;20012;-68
2023/12/17 07:35:49;;;;;;;0.30;0.20;;;9.30;99.90;;;;;;6183519;23;20013;-69
2023/12/17 07:38:14;;;;;;;0.68;0.68;;;9.30;99.90;;;;;;6185064;23;20055;-70
2023/12/17 07:40:40;;;;;;;0.47;0.47;;;9.30;99.90;;;;;;6184253;23;20027;-67
2023/12/17 07:43:06;;;;;;;0.47;0.47;;;9.30;99.90;;;;;;6184675;23;20008;-68
2023/12/17 07:45:33;;;;;;;0.38;0.38;;;9.30;99.90;;;;;;6185042;23;20044;-69
2023/12/17 07:47:59;;;;;;;3.17;0.70;;;9.30;99.90;;;;;;6184327;23;20016;-68
2023/12/17 07:50:25;;;;;;;0.85;0.75;;;9.30;99.90;;;;;;6186205;23;20082;-69
2023/12/17 07:52:50;;;;;;;0.22;0.15;;;9.30;99.90;;;;;;6185307;23;20428;-69
2023/12/17 07:55:16;;;;;;;0.90;0.65;;;9.30;99.90;;;;;;6184123;23;20005;-67
2023/12/17 07:57:42;;;;;;;0.52;0.52;;;9.30;99.90;;;;;;6185108;23;20009;-68
2023/12/17 08:00:08;;;;;;;1.70;1.60;;;9.30;99.90;;;;;;6213445;23;20020;-67
2023/12/17 08:02:34;;;;;;;0.77;0.65;;;9.30;99.90;;;;;;6161177;23;20086;-68
2023/12/17 08:04:59;;;;;;;2.55;1.10;;;9.30;99.90;;;;;;6186156;23;20013;-69
2023/12/17 08:07:25;;;;;;;1.58;1.10;;;9.30;99.90;;;;;;6161121;23;20095;-68
2023/12/17 08:09:51;;;;;;;0.77;0.77;;;9.30;99.90;;;;;;6185939;23;20138;-69
2023/12/17 08:12:16;;;;;;;1.48;0.85;;;9.30;99.90;;;;;;6186271;23;20023;-69
2023/12/17 08:14:42;;;;;;;1.45;1.35;;;9.30;99.90;;;;;;6185835;23;20021;-69
2023/12/17 08:17:07;;;;;;;0.30;0.30;;;9.30;99.90;;;;;;6186437;23;20091;-71
2023/12/17 08:19:33;;;;;;;0.55;0.50;;;9.30;99.90;;;;;;6185147;23;20012;-69
2023/12/17 08:21:59;;;;;;;1.35;0.77;;;9.30;99.90;;;;;;6185899;23;20209;-70
2023/12/17 08:24:24;;;;;;;0.85;0.85;;;9.30;99.90;;;;;;6210261;23;20047;-67
2023/12/17 08:26:54;;;;;;;1.08;0.73;;;9.30;99.90;;;;;;6185404;23;20444;-71
2023/12/17 08:29:20;;;;;;;1.98;0.60;;;9.30;99.90;;;;;;6212358;23;20027;-69
2023/12/17 08:31:46;;;;;;;1.33;1.00;;;9.40;99.90;;;;;;6186276;23;20016;-68
2023/12/17 08:34:11;;;;;;;2.75;2.55;;;9.40;99.90;;;;;;6184336;23;20019;-68
2023/12/17 08:36:37;;;;;;;1.13;0.60;;;9.40;99.90;;;;;;6212356;23;20075;-69
2023/12/17 08:39:05;;;;;;;0.73;0.70;;;9.40;99.90;;;;;;6184483;23;20328;-69
2023/12/17 08:41:33;;;;;;;0.88;0.70;;;9.40;99.90;;;;;;6185643;23;20035;-69
2023/12/17 08:43:59;;;;;;;2.50;0.70;;;9.40;99.90;;;;;;6184540;23;20008;-70
2023/12/17 08:46:25;;;;;;;0.52;0.47;;;9.40;99.90;;;;;;6185333;23;20016;-67
2023/12/17 08:48:50;;;;;;;1.83;0.90;;;9.40;99.90;;;;;;6184376;23;20376;-68
2023/12/17 08:51:16;;;;;;;1.13;0.85;;;9.40;99.90;;;;;;6185381;23;20012;-69
2023/12/17 08:53:41;;;;;;;1.35;1.15;;;9.40;99.90;;;;;;6184015;23;20012;-67
2023/12/17 08:56:08;;;;;;;2.10;0.98;;;9.50;99.90;;;;;;6185326;23;20143;-69
2023/12/17 08:58:33;;;;;;;4.50;0.95;;;9.50;99.90;;;;;;6210883;23;20016;-69
2023/12/17 09:00:59;;;;;;;2.55;0.98;;;9.50;99.90;;;;;;6185519;23;20017;-68
2023/12/17 09:03:25;;;;;;;1.83;1.08;;;9.50;99.90;;;;;;6184254;23;20339;-69
2023/12/17 09:05:50;;;;;;;0.98;0.98;;;9.50;99.90;;;;;;6185270;23;20475;-70
2023/12/17 09:08:16;;;;;;;1.77;0.77;;;9.50;99.90;;;;;;6184755;23;20012;-68
2023/12/17 09:10:41;;;;;;;1.00;0.85;;;9.50;99.90;;;;;;6186346;23;20511;-68
2023/12/17 09:13:09;;;;;;;1.10;0.90;;;9.50;99.90;;;;;;6211657;23;20012;-69
2023/12/17 09:15:36;;;;;;;0.80;0.80;;;9.50;99.90;;;;;;6184933;23;20017;-69
2023/12/17 09:18:02;;;;;;;2.90;1.90;;;9.50;99.90;;;;;;6211971;23;20019;-73
2023/12/17 09:20:28;;;;;;;0.55;0.50;;;9.50;99.90;;;;;;6160133;23;20012;-67
2023/12/17 09:22:54;;;;;;;1.17;1.15;;;9.50;99.90;;;;;;6183386;23;20023;-70
2023/12/17 09:25:19;;;;;;;0.75;0.75;;;9.50;99.90;;;;;;6185266;23;20051;-68
2023/12/17 09:27:45;;;;;;;1.65;0.63;;;9.50;99.90;;;;;;6184576;23;20071;-71
2023/12/17 09:30:11;;;;;;;0.70;0.70;;;9.50;99.90;;;;;;6185332;23;20020;-74
2023/12/17 09:32:36;;;;;;;3.10;0.98;;;9.50;99.90;;;;;;6184210;23;20027;-70
2023/12/17 09:35:02;;;;;;;2.30;1.00;;;9.40;99.90;;;;;;6184585;23;20016;-68
2023/12/17 09:37:28;;;;;;;1.13;1.02;;;9.40;99.90;;;;;;6183740;23;20090;-69
2023/12/17 09:39:54;;;;;;;1.88;1.77;;;9.40;99.90;;;;;;6210314;23;20043;-70
2023/12/17 09:42:20;;;;;;;1.25;1.02;;;9.40;99.90;;;;;;6183725;23;20016;-68
2023/12/17 09:44:46;;;;;;;1.95;1.45;;;9.40;99.90;;;;;;6184487;23;20015;-67
2023/12/17 09:47:11;;;;;;;3.38;1.40;;;9.40;99.90;;;;;;6185178;23;20040;-68
2023/12/17 09:49:37;;;;;;;1.75;1.23;;;9.40;99.90;;;;;;6185579;23;20012;-70
2023/12/17 09:52:11;;;;;;;2.55;1.35;;;9.40;99.90;;;;;;6187279;23;20039;-70
2023/12/17 09:54:37;;;;;;;1.40;0.98;;;9.40;99.90;;;;;;6213480;23;20012;-68
2023/12/17 09:57:06;;;;;;;1.33;1.00;;;9.50;99.90;;;;;;6187406;23;20024;-71
2023/12/17 09:59:32;;;;;;;0.73;0.73;;;9.40;99.90;;;;;;6185433;23;20009;-72
2023/12/17 10:01:57;;;;;;;0.52;0.40;;;9.40;99.90;;;;;;6214470;23;20016;-68
2023/12/17 10:04:24;;;;;;;0.80;0.52;;;9.40;99.90;;;;;;6212800;23;20455;-69
2023/12/17 10:06:51;;;;;;;1.25;0.80;;;9.50;99.90;;;;;;6214551;23;20421;-71
2023/12/17 10:09:16;;;;;;;11.02;1.38;;;9.40;99.90;;;;;;6186350;23;20020;-67
2023/12/17 10:11:42;;;;;;;1.00;1.00;;;9.40;99.90;;;;;;6187683;23;20321;-68
2023/12/17 10:14:24;;;;;;;2.83;1.25;;;9.40;99.90;;;;;;6184880;23;20016;-69
2023/12/17 10:16:51;;;;;;;2.90;0.43;;;9.50;99.90;;;;;;6214063;23;20023;-71
2023/12/17 10:19:17;;;;;;;1.88;0.85;;;9.50;99.90;;;;;;6212568;23;20005;-68
2023/12/17 10:21:42;;;;;;;15.35;1.52;;;9.40;99.90;;;;;;6214385;23;20036;-71
2023/12/17 10:24:09;;;;;;;4.40;1.42;;;9.40;99.90;;;;;;6185685;23;20451;-70
2023/12/17 10:26:45;;;;;;;3.10;1.45;;;9.40;99.90;;;;;;6214572;23;20012;-70
2023/12/17 10:29:15;;;;;;;0.35;0.28;;;9.40;99.90;;;;;;6185538;23;20016;-67
2023/12/17 10:31:42;;;;;;;1.58;1.13;;;9.40;99.90;;;;;;6187345;23;20106;-69
2023/12/17 10:34:12;;;;;;;1.05;1.00;;;9.40;99.90;;;;;;6210559;23;20559;-70
2023/12/17 10:36:38;;;;;;;2.47;0.82;;;9.40;99.90;;;;;;6186103;23;20017;-70
2023/12/17 10:39:05;;;;;;;6.00;1.42;;;9.40;99.90;;;;;;6185303;23;20013;-71
2023/12/17 10:41:32;;;;;;;5.00;1.25;;;9.40;99.90;;;;;;6186151;23;20008;-67
2023/12/17 10:43:59;;;;;;;1.00;0.93;;;9.40;99.90;;;;;;6186228;23;20008;-68
2023/12/17 10:46:26;;;;;;;1.25;1.13;;;9.40;99.90;;;;;;6212891;23;20051;-69
2023/12/17 10:48:52;;;;;;;0.80;0.40;;;9.40;99.90;;;;;;6186072;23;20017;-68
2023/12/17 10:51:19;;;;;;;1.60;0.93;;;9.40;99.90;;;;;;6187087;23;20016;-67
2023/12/17 10:53:44;;;;;;;1.90;0.88;;;9.40;99.90;;;;;;6184278;23;20012;-68
2023/12/17 10:56:12;;;;;;;1.33;0.98;;;9.40;99.90;;;;;;6212963;23;20090;-67
2023/12/17 10:58:38;;;;;;;1.38;0.75;;;9.40;99.90;;;;;;6185236;23;20094;-69
2023/12/17 11:01:04;;;;;;;2.45;1.10;;;9.40;99.90;;;;;;6186268;23;20008;-70
2023/12/17 11:03:30;;;;;;;0.38;0.35;;;9.40;99.90;;;;;;6185378;23;20047;-71
2023/12/17 11:05:58;;;;;;;2.13;1.20;;;9.40;99.90;;;;;;6186399;23;20016;-71
2023/12/17 11:08:25;;;;;;;1.77;1.50;;;9.40;99.90;;;;;;6185798;23;20096;-72
2023/12/17 11:10:51;;;;;;;1.15;0.90;;;9.40;99.90;;;;;;6186856;23;20020;-70
2023/12/17 11:13:21;;;;;;;2.28;1.00;;;9.40;99.90;;;;;;6185051;23;20013;-68
2023/12/17 11:15:47;;;;;;;1.88;1.75;;;9.40;99.90;;;;;;6185340;23;20028;-70
2023/12/17 11:18:13;;;;;;;3.35;0.82;;;9.40;99.90;;;;;;6212767;23;20008;-70
2023/12/17 11:20:41;;;;;;;3.15;1.05;;;9.40;99.90;;;;;;6213050;23;20329;-69
2023/12/17 11:23:07;;;;;;;2.20;0.60;;;9.40;99.90;;;;;;6185133;23;20040;-70
2023/12/17 11:25:34;;;;;;;1.17;0.73;;;9.40;99.90;;;;;;6185129;23;20012;-69
2023/12/17 11:28:00;;;;;;;1.10;1.10;;;9.40;99.90;;;;;;6184899;23;20025;-70
2023/12/17 11:30:31;;;;;;;1.30;0.80;;;9.40;99.90;;;;;;6185627;23;20474;-69
2023/12/17 11:33:01;;;;;;;2.15;0.70;;;9.40;99.90;;;;;;6186496;23;20012;-68
2023/12/17 11:35:28;;;;;;;5.13;2.03;;;9.40;99.90;;;;;;6185228;23;20429;-69
2023/12/17 11:37:54;;;;;;;1.95;0.90;;;9.40;99.90;;;;;;6185425;23;20066;-71
2023/12/17 11:40:20;;;;;;;5.90;1.50;;;9.30;99.90;;;;;;6184871;23;20040;-68
2023/12/17 11:42:59;;;;;;;4.55;1.52;;;9.30;99.90;;;;;;6212026;23;20079;-69
2023/12/17 11:45:33;;;;;;;2.97;1.83;;;9.30;99.90;;;;;;6184679;23;20055;-67
2023/12/17 11:48:07;;;;;;;4.03;1.35;;;9.20;99.90;;;;;;6185953;23;20340;-70
2023/12/17 11:50:46;;;;;;;5.57;1.40;;;9.20;99.90;;;;;;6185946;23;20016;-71
2023/12/17 11:53:22;;;;;;;1.23;1.13;;;9.20;99.90;;;;;;6212745;23;20404;-69
2023/12/17 11:55:52;;;;;;;1.73;1.30;;;9.20;99.90;;;;;;6184871;23;20051;-69
2023/12/17 11:58:20;;;;;;;1.52;1.35;;;9.20;99.90;;;;;;6185502;23;20020;-70
2023/12/17 12:01:05;;;;;;;8.68;1.73;;;9.20;99.90;;;;;;6185688;23;20467;-67
2023/12/17 12:03:30;;;;;;;5.53;1.08;;;9.20;99.90;;;;;;6212013;23;20013;-67
2023/12/17 12:05:58;;;;;;;3.05;2.38;;;9.20;99.90;;;;;;6185393;23;20296;-68
2023/12/17 12:08:24;;;;;;;4.63;1.85;;;9.30;99.90;;;;;;6212706;23;20067;-66
2023/12/17 12:10:51;;;;;;;4.35;2.10;;;9.30;99.90;;;;;;6210800;23;20448;-68
2023/12/17 12:13:17;;;;;;;3.40;1.77;;;9.30;99.90;;;;;;6186078;23;20012;-71
2023/12/17 12:15:43;;;;;;;3.33;1.40;;;9.20;99.90;;;;;;6184433;23;20059;-69
2023/12/17 12:18:21;;;;;;;2.25;1.73;;;9.20;99.90;;;;;;6185337;23;20604;-70
2023/12/17 12:20:48;;;;;;;5.95;2.35;;;9.30;99.90;;;;;;6184313;23;20035;-68
2023/12/17 12:23:14;;;;;;;1.17;1.02;;;9.40;99.90;;;;;;6213785;23;20114;-68
2023/12/17 12:25:40;;;;;;;3.35;2.10;;;9.40;99.90;;;;;;6184447;23;20440;-69
2023/12/17 12:28:17;;;;;;;1.67;1.58;;;9.40;99.90;;;;;;6211741;23;20428;-69
2023/12/17 12:30:42;;;;;;;3.88;1.13;;;9.30;99.90;;;;;;6185519;23;20408;-72
2023/12/17 12:33:12;;;;;;;4.38;1.52;;;9.30;99.90;;;;;;6185787;23;20045;-68
2023/12/17 12:35:39;;;;;;;1.63;0.80;;;9.30;99.90;;;;;;6184297;23;20074;-69
2023/12/17 12:38:22;;;;;;;1.67;1.58;;;9.30;99.90;;;;;;6212858;23;20009;-71
2023/12/17 12:40:49;;;;;;;0.73;0.70;;;9.20;99.90;;;;;;6211529;23;20024;-67
2023/12/17 12:43:18;;;;;;;1.05;0.95;;;9.20;99.90;;;;;;6186135;23;20047;-68
2023/12/17 12:45:47;;;;;;;6.78;2.05;;;9.20;99.90;;;;;;6209956;23;20012;-67
2023/12/17 12:48:24;;;;;;;8.75;1.77;;;9.20;99.90;;;;;;6185637;23;20341;-67
2023/12/17 12:50:50;;;;;;;1.70;1.48;;;9.20;99.90;;;;;;6184465;23;20017;-67